Bismarck, ND (58501)

5:13 PM CDT on September 26, 2016 (GMT -0500)
Pacific Avenue Bismarck | | Change Station
Active Advisory: Frost Advisory

Elev 1722 ft 46.83 °N, 100.75 °W | Updated 31 seconds ago

Clear
Clear
69.8 °F
Feels Like 69.8 °F
N
7.0
Wind Variable Wind from WNW

Today
High -- | Low -- °F
--% Chance of Precip.
Yesterday
High -- | Low -- °F
Precip. -- in
Pressure 30.13 in
Visibility 10.0 miles
Clouds Clear
Dew Point 39 °F
Humidity 32%
Rainfall 0.00 in
Snow Depth Not available.
7:35 AM 7:31 PM
Waning Crescent, 16% visible
METAR KBIS 262152Z 33016G22KT 10SM CLR 21/02 A3011 RMK AO2 SLP201 T02060017
Pressure 30.13 in
Visibility 10.0 miles
Clouds Clear
Dew Point 39 °F
Humidity 32%
Rainfall 0.00 in
Snow Depth Not available.
7:35 AM 7:31 PM
Waning Crescent, 16% visible
METAR KBIS 262152Z 33016G22KT 10SM CLR 21/02 A3011 RMK AO2 SLP201 T02060017

10-Day Weather Forecast

Almanac

Astronomy

Sep. 26, 2016 Rise Set
Actual Time
Civil Twilight
Nautical Twilight
Astronomical Twilight
Moon
Length of Visible Light
Length of Day
Tomorrow will be .
, % of the Moon is Illuminated

Today's Extremes

State Highs State Lows

Community

WunderPhotos

Upload Photos

1,941,978 photos uploaded!

WunderBlog® & News

Nearby

Air Quality

  Air Quality AQ Index Pollutant
Not available.

Snow Depth

Station Depth Elevation

Earthquake Activity

City Distance Mag. Time & Date
Minimum magnitude displayed is 2.5.

Coastal Water Temperatures

Place Temperature

Stations

Nearby Weather Stations

Station Location Temp. Windchill Dew Point Humidity Wind Precip. Elev Updated Type
                   

Watches & Warnings

Frost Advisory
Issued: 1:25 PM MDT Sep. 26, 2016 – National Weather Service

... Frost advisory remains in effect from 1 am CDT /midnight MDT/
to 8 am CDT /7 am MDT/ Tuesday...

* temperature... lows in the lower to mid 30s.

* Impacts... frost will kill or damage sensitive vegetation if
left uncovered.

Precautionary/preparedness actions...

A frost advisory means that widespread frost is expected.
Sensitive outdoor plants may be killed if left uncovered.



Pja